sensor_id;sensor_type;location;lat;lon;timestamp;pressure;altitude;pressure_sealevel;temperature;humidity
9521;BME280;4798;41.574;23.734;2024-03-08T00:01:25;95236.53;;;10.46;89.96
9521;BME280;4798;41.574;23.734;2024-03-08T00:03:55;95224.31;;;10.55;89.65
9521;BME280;4798;41.574;23.734;2024-03-08T00:06:24;95223.88;;;10.08;90.47
9521;BME280;4798;41.574;23.734;2024-03-08T00:08:53;95215.47;;;9.66;92.98
9521;BME280;4798;41.574;23.734;2024-03-08T00:11:23;95224.47;;;9.65;95.78
9521;BME280;4798;41.574;23.734;2024-03-08T00:13:53;95178.13;;;8.91;98.44
9521;BME280;4798;41.574;23.734;2024-03-08T00:16:21;95228.19;;;9.48;98.81
9521;BME280;4798;41.574;23.734;2024-03-08T00:18:50;95222.34;;;9.72;96.67
9521;BME280;4798;41.574;23.734;2024-03-08T00:21:21;95114.44;;;9.13;94.86
9521;BME280;4798;41.574;23.734;2024-03-08T00:23:49;95215.69;;;9.99;95.74
9521;BME280;4798;41.574;23.734;2024-03-08T00:26:18;95214.59;;;10.26;93.27
9521;BME280;4798;41.574;23.734;2024-03-08T00:28:47;95215.91;;;10.38;90.20
9521;BME280;4798;41.574;23.734;2024-03-08T00:31:15;95216.16;;;10.42;89.21
9521;BME280;4798;41.574;23.734;2024-03-08T00:33:45;95147.69;;;9.75;89.46
9521;BME280;4798;41.574;23.734;2024-03-08T00:36:14;95200.06;;;10.03;89.85
9521;BME280;4798;41.574;23.734;2024-03-08T00:38:44;95203.78;;;9.92;89.52
9521;BME280;4798;41.574;23.734;2024-03-08T00:41:13;95211.47;;;10.13;89.01
9521;BME280;4798;41.574;23.734;2024-03-08T00:43:41;95207.72;;;10.25;87.77
9521;BME280;4798;41.574;23.734;2024-03-08T00:46:10;95181.78;;;10.22;87.11
9521;BME280;4798;41.574;23.734;2024-03-08T00:48:39;95192.38;;;10.22;88.99
9521;BME280;4798;41.574;23.734;2024-03-08T00:51:10;95134.75;;;9.68;89.46
9521;BME280;4798;41.574;23.734;2024-03-08T00:53:39;95191.31;;;10.02;89.94
9521;BME280;4798;41.574;23.734;2024-03-08T00:56:09;95184.69;;;10.20;88.90
9521;BME280;4798;41.574;23.734;2024-03-08T00:58:38;95188.03;;;10.46;88.50
9521;BME280;4798;41.574;23.734;2024-03-08T01:01:07;95107.72;;;9.91;87.20
9521;BME280;4798;41.574;23.734;2024-03-08T01:03:37;95184.31;;;10.52;86.27
9521;BME280;4798;41.574;23.734;2024-03-08T01:06:05;95165.03;;;10.41;86.48
9521;BME280;4798;41.574;23.734;2024-03-08T01:08:34;95148.16;;;10.07;88.97
9521;BME280;4798;41.574;23.734;2024-03-08T01:11:05;95185.22;;;10.02;92.47
9521;BME280;4798;41.574;23.734;2024-03-08T01:13:35;95173.91;;;9.76;95.84
9521;BME280;4798;41.574;23.734;2024-03-08T01:16:05;95196.16;;;9.65;97.65
9521;BME280;4798;41.574;23.734;2024-03-08T01:18:34;95187.69;;;9.48;99.14
9521;BME280;4798;41.574;23.734;2024-03-08T01:21:03;95181.88;;;9.31;98.85
9521;BME280;4798;41.574;23.734;2024-03-08T01:23:31;95187.19;;;9.36;99.94
9521;BME280;4798;41.574;23.734;2024-03-08T01:26:01;95187.69;;;9.18;100.00
9521;BME280;4798;41.574;23.734;2024-03-08T01:28:30;95190.81;;;9.00;100.00
9521;BME280;4798;41.574;23.734;2024-03-08T01:31:02;95186.44;;;8.48;100.00
9521;BME280;4798;41.574;23.734;2024-03-08T01:33:31;95187.88;;;8.81;100.00
9521;BME280;4798;41.574;23.734;2024-03-08T01:36:00;95190.53;;;8.91;100.00
9521;BME280;4798;41.574;23.734;2024-03-08T01:38:29;95191.31;;;8.76;100.00
9521;BME280;4798;41.574;23.734;2024-03-08T01:40:58;95191.25;;;8.56;100.00
9521;BME280;4798;41.574;23.734;2024-03-08T01:43:27;95193.63;;;8.58;100.00
9521;BME280;4798;41.574;23.734;2024-03-08T01:45:58;95203.09;;;8.44;100.00
9521;BME280;4798;41.574;23.734;2024-03-08T01:48:28;95203.53;;;8.30;100.00
9521;BME280;4798;41.574;23.734;2024-03-08T01:50:57;95196.75;;;8.45;100.00
9521;BME280;4798;41.574;23.734;2024-03-08T01:53:27;95157.69;;;8.57;100.00
9521;BME280;4798;41.574;23.734;2024-03-08T01:55:57;95179.94;;;8.86;100.00
9521;BME280;4798;41.574;23.734;2024-03-08T01:58:27;95214.63;;;9.05;100.00
9521;BME280;4798;41.574;23.734;2024-03-08T02:00:57;95196.06;;;8.79;100.00
9521;BME280;4798;41.574;23.734;2024-03-08T02:03:27;95130.56;;;8.04;100.00
9521;BME280;4798;41.574;23.734;2024-03-08T02:05:58;95206.75;;;8.43;100.00
9521;BME280;4798;41.574;23.734;2024-03-08T02:08:27;95219.16;;;7.95;100.00
9521;BME280;4798;41.574;23.734;2024-03-08T02:10:56;95222.66;;;7.32;100.00
9521;BME280;4798;41.574;23.734;2024-03-08T02:13:25;95228.09;;;7.21;100.00
9521;BME280;4798;41.574;23.734;2024-03-08T02:15:54;95216.53;;;7.27;100.00
9521;BME280;4798;41.574;23.734;2024-03-08T02:18:23;95229.00;;;7.68;100.00
9521;BME280;4798;41.574;23.734;2024-03-08T02:20:54;95178.22;;;7.88;100.00
9521;BME280;4798;41.574;23.734;2024-03-08T02:23:23;95214.09;;;8.30;100.00
9521;BME280;4798;41.574;23.734;2024-03-08T02:25:53;95234.28;;;8.52;100.00
9521;BME280;4798;41.574;23.734;2024-03-08T02:28:23;95220.00;;;8.48;100.00
9521;BME280;4798;41.574;23.734;2024-03-08T02:30:52;95232.47;;;8.57;100.00
9521;BME280;4798;41.574;23.734;2024-03-08T02:33:25;95239.28;;;8.48;100.00
9521;BME280;4798;41.574;23.734;2024-03-08T02:35:56;95235.63;;;8.54;100.00
9521;BME280;4798;41.574;23.734;2024-03-08T02:38:25;95200.41;;;8.34;100.00
9521;BME280;4798;41.574;23.734;2024-03-08T02:40:53;95207.53;;;8.33;99.67
9521;BME280;4798;41.574;23.734;2024-03-08T02:43:22;95242.47;;;8.55;98.32
9521;BME280;4798;41.574;23.734;2024-03-08T02:45:52;95240.91;;;8.54;97.66
9521;BME280;4798;41.574;23.734;2024-03-08T02:48:21;95195.31;;;8.22;98.20
9521;BME280;4798;41.574;23.734;2024-03-08T02:50:50;95246.97;;;8.50;99.25
9521;BME280;4798;41.574;23.734;2024-03-08T02:53:21;95243.75;;;8.48;99.94
9521;BME280;4798;41.574;23.734;2024-03-08T02:55:49;95248.25;;;8.42;100.00
9521;BME280;4798;41.574;23.734;2024-03-08T02:58:18;95225.47;;;8.31;100.00
9521;BME280;4798;41.574;23.734;2024-03-08T03:00:47;95233.84;;;8.23;100.00
9521;BME280;4798;41.574;23.734;2024-03-08T03:03:15;95245.59;;;8.37;100.00
9521;BME280;4798;41.574;23.734;2024-03-08T03:05:44;95252.69;;;8.37;100.00
9521;BME280;4798;41.574;23.734;2024-03-08T03:08:15;95257.88;;;7.85;100.00
9521;BME280;4798;41.574;23.734;2024-03-08T03:10:46;95259.97;;;7.83;100.00
9521;BME280;4798;41.574;23.734;2024-03-08T03:13:15;95260.63;;;8.00;100.00
9521;BME280;4798;41.574;23.734;2024-03-08T03:15:43;95216.97;;;7.82;100.00
9521;BME280;4798;41.574;23.734;2024-03-08T03:18:12;95238.38;;;7.86;100.00
9521;BME280;4798;41.574;23.734;2024-03-08T03:20:41;95264.06;;;7.63;100.00
9521;BME280;4798;41.574;23.734;2024-03-08T03:23:10;95241.63;;;7.61;100.00
9521;BME280;4798;41.574;23.734;2024-03-08T03:25:42;95232.03;;;7.82;100.00
9521;BME280;4798;41.574;23.734;2024-03-08T03:28:14;95260.84;;;7.93;100.00
9521;BME280;4798;41.574;23.734;2024-03-08T03:30:45;95263.03;;;8.01;100.00
9521;BME280;4798;41.574;23.734;2024-03-08T03:33:14;95258.94;;;8.25;100.00
9521;BME280;4798;41.574;23.734;2024-03-08T03:35:44;95260.50;;;8.21;99.03
9521;BME280;4798;41.574;23.734;2024-03-08T03:38:13;95263.84;;;8.07;100.00
9521;BME280;4798;41.574;23.734;2024-03-08T03:40:42;95225.03;;;8.07;99.43
9521;BME280;4798;41.574;23.734;2024-03-08T03:43:13;95260.25;;;8.23;98.62
9521;BME280;4798;41.574;23.734;2024-03-08T03:45:42;95261.97;;;8.44;97.15
9521;BME280;4798;41.574;23.734;2024-03-08T03:48:11;95263.91;;;8.12;97.45
9521;BME280;4798;41.574;23.734;2024-03-08T03:50:39;95263.81;;;8.02;100.00
9521;BME280;4798;41.574;23.734;2024-03-08T03:53:08;95262.34;;;8.21;100.00
9521;BME280;4798;41.574;23.734;2024-03-08T03:55:38;95260.88;;;8.40;98.56
9521;BME280;4798;41.574;23.734;2024-03-08T03:58:08;95238.88;;;8.24;98.56
9521;BME280;4798;41.574;23.734;2024-03-08T04:00:39;95260.97;;;8.55;97.56
9521;BME280;4798;41.574;23.734;2024-03-08T04:03:08;95259.41;;;8.59;95.82
9521;BME280;4798;41.574;23.734;2024-03-08T04:05:37;95256.53;;;8.71;96.12
9521;BME280;4798;41.574;23.734;2024-03-08T04:08:06;95256.84;;;8.74;95.15
9521;BME280;4798;41.574;23.734;2024-03-08T04:10:34;95257.88;;;8.78;94.52
9521;BME280;4798;41.574;23.734;2024-03-08T04:13:03;95258.69;;;8.79;94.02
9521;BME280;4798;41.574;23.734;2024-03-08T04:15:32;95254.47;;;8.83;93.22
9521;BME280;4798;41.574;23.734;2024-03-08T04:18:02;95258.38;;;8.65;94.46
9521;BME280;4798;41.574;23.734;2024-03-08T04:20:31;95264.75;;;8.69;94.42
9521;BME280;4798;41.574;23.734;2024-03-08T04:23:00;95261.59;;;8.77;94.72
9521;BME280;4798;41.574;23.734;2024-03-08T04:25:28;95270.53;;;8.66;93.49
9521;BME280;4798;41.574;23.734;2024-03-08T04:27:57;95277.78;;;8.34;93.08
9521;BME280;4798;41.574;23.734;2024-03-08T04:30:26;95282.13;;;7.77;98.02
9521;BME280;4798;41.574;23.734;2024-03-08T04:32:55;95277.63;;;7.45;99.21
9521;BME280;4798;41.574;23.734;2024-03-08T04:35:25;95282.00;;;7.66;100.00
9521;BME280;4798;41.574;23.734;2024-03-08T04:37:54;95293.66;;;7.71;99.32
9521;BME280;4798;41.574;23.734;2024-03-08T04:40:24;95287.31;;;7.72;99.32
9521;BME280;4798;41.574;23.734;2024-03-08T04:42:53;95291.59;;;7.78;98.38
9521;BME280;4798;41.574;23.734;2024-03-08T04:45:22;95290.41;;;7.95;94.98
9521;BME280;4798;41.574;23.734;2024-03-08T04:47:52;95289.34;;;7.91;95.72
9521;BME280;4798;41.574;23.734;2024-03-08T04:50:21;95295.38;;;7.87;95.90
9521;BME280;4798;41.574;23.734;2024-03-08T04:52:51;95298.84;;;7.92;97.04
9521;BME280;4798;41.574;23.734;2024-03-08T04:55:20;95296.13;;;7.82;98.29
9521;BME280;4798;41.574;23.734;2024-03-08T04:57:50;95306.19;;;7.53;100.00
9521;BME280;4798;41.574;23.734;2024-03-08T05:00:18;95303.09;;;7.66;100.00
9521;BME280;4798;41.574;23.734;2024-03-08T05:02:47;95308.00;;;7.85;100.00
9521;BME280;4798;41.574;23.734;2024-03-08T05:05:20;95313.00;;;7.81;100.00
9521;BME280;4798;41.574;23.734;2024-03-08T05:07:50;95326.78;;;7.88;100.00
9521;BME280;4798;41.574;23.734;2024-03-08T05:10:19;95314.06;;;7.80;100.00
9521;BME280;4798;41.574;23.734;2024-03-08T05:12:49;95258.75;;;7.32;100.00
9521;BME280;4798;41.574;23.734;2024-03-08T05:15:20;95317.13;;;7.72;100.00
9521;BME280;4798;41.574;23.734;2024-03-08T05:17:49;95322.19;;;7.74;100.00
9521;BME280;4798;41.574;23.734;2024-03-08T05:20:18;95331.13;;;7.73;100.00
9521;BME280;4798;41.574;23.734;2024-03-08T05:22:46;95320.41;;;7.52;100.00
9521;BME280;4798;41.574;23.734;2024-03-08T05:25:15;95335.31;;;7.15;100.00
9521;BME280;4798;41.574;23.734;2024-03-08T05:27:46;95330.28;;;7.14;100.00
9521;BME280;4798;41.574;23.734;2024-03-08T05:30:15;95289.84;;;7.03;100.00
9521;BME280;4798;41.574;23.734;2024-03-08T05:32:44;95336.16;;;7.21;100.00
9521;BME280;4798;41.574;23.734;2024-03-08T05:35:13;95340.09;;;7.18;100.00
9521;BME280;4798;41.574;23.734;2024-03-08T05:37:43;95339.59;;;7.48;100.00
9521;BME280;4798;41.574;23.734;2024-03-08T05:40:12;95333.31;;;7.54;100.00
9521;BME280;4798;41.574;23.734;2024-03-08T05:42:46;95333.53;;;7.74;99.48
9521;BME280;4798;41.574;23.734;2024-03-08T05:45:15;95336.00;;;7.86;100.00
9521;BME280;4798;41.574;23.734;2024-03-08T05:47:44;95342.78;;;8.08;98.42
9521;BME280;4798;41.574;23.734;2024-03-08T05:50:13;95309.22;;;8.04;95.16
9521;BME280;4798;41.574;23.734;2024-03-08T05:52:43;95346.44;;;8.34;95.23
9521;BME280;4798;41.574;23.734;2024-03-08T05:55:12;95338.75;;;8.32;94.40
9521;BME280;4798;41.574;23.734;2024-03-08T05:57:41;95356.59;;;8.52;93.01
9521;BME280;4798;41.574;23.734;2024-03-08T06:00:12;95357.97;;;8.60;90.69
9521;BME280;4798;41.574;23.734;2024-03-08T06:02:42;95355.00;;;8.51;90.11
9521;BME280;4798;41.574;23.734;2024-03-08T06:05:11;95355.66;;;8.78;87.99
9521;BME280;4798;41.574;23.734;2024-03-08T06:07:40;95364.19;;;8.95;86.83
9521;BME280;4798;41.574;23.734;2024-03-08T06:10:10;95355.53;;;9.00;86.63
9521;BME280;4798;41.574;23.734;2024-03-08T06:12:39;95366.34;;;9.04;85.82
9521;BME280;4798;41.574;23.734;2024-03-08T06:15:11;95372.97;;;9.06;83.51
9521;BME280;4798;41.574;23.734;2024-03-08T06:17:42;95366.41;;;9.14;83.41
9521;BME280;4798;41.574;23.734;2024-03-08T06:20:11;95367.34;;;9.65;81.53
9521;BME280;4798;41.574;23.734;2024-03-08T06:22:41;95362.91;;;10.10;79.85
9521;BME280;4798;41.574;23.734;2024-03-08T06:25:09;95371.91;;;10.04;76.26
9521;BME280;4798;41.574;23.734;2024-03-08T06:27:41;95355.44;;;10.78;74.98
9521;BME280;4798;41.574;23.734;2024-03-08T06:30:12;95365.97;;;11.03;71.65
9521;BME280;4798;41.574;23.734;2024-03-08T06:32:43;95367.69;;;11.43;69.71
9521;BME280;4798;41.574;23.734;2024-03-08T06:35:12;95367.56;;;12.07;66.07
9521;BME280;4798;41.574;23.734;2024-03-08T06:37:43;95371.88;;;12.03;67.75
9521;BME280;4798;41.574;23.734;2024-03-08T06:40:12;95364.63;;;12.42;65.49
9521;BME280;4798;41.574;23.734;2024-03-08T06:42:41;95315.72;;;12.43;64.80
9521;BME280;4798;41.574;23.734;2024-03-08T06:45:12;95358.50;;;13.47;62.88
9521;BME280;4798;41.574;23.734;2024-03-08T06:47:42;95372.44;;;13.99;61.15
9521;BME280;4798;41.574;23.734;2024-03-08T06:50:11;95367.78;;;13.49;59.66
9521;BME280;4798;41.574;23.734;2024-03-08T06:52:40;95378.53;;;12.92;63.73
9521;BME280;4798;41.574;23.734;2024-03-08T06:55:09;95369.81;;;13.57;63.29
9521;BME280;4798;41.574;23.734;2024-03-08T06:57:39;95369.28;;;14.16;62.19
9521;BME280;4798;41.574;23.734;2024-03-08T07:00:11;95374.53;;;14.86;61.29
9521;BME280;4798;41.574;23.734;2024-03-08T07:02:45;95360.31;;;15.45;58.98
9521;BME280;4798;41.574;23.734;2024-03-08T07:05:16;95368.91;;;15.01;60.88
9521;BME280;4798;41.574;23.734;2024-03-08T07:07:45;95369.72;;;15.15;59.37
9521;BME280;4798;41.574;23.734;2024-03-08T07:10:15;95372.38;;;14.55;59.13
9521;BME280;4798;41.574;23.734;2024-03-08T07:12:44;95373.34;;;15.05;59.01
9521;BME280;4798;41.574;23.734;2024-03-08T07:15:15;95335.00;;;15.01;56.39
9521;BME280;4798;41.574;23.734;2024-03-08T07:17:47;95331.41;;;14.51;59.59
9521;BME280;4798;41.574;23.734;2024-03-08T07:20:16;95310.94;;;14.28;59.73
9521;BME280;4798;41.574;23.734;2024-03-08T07:22:46;95370.63;;;15.38;57.93
9521;BME280;4798;41.574;23.734;2024-03-08T07:25:18;95351.16;;;15.51;57.87
9521;BME280;4798;41.574;23.734;2024-03-08T07:27:51;95371.28;;;15.43;56.87
9521;BME280;4798;41.574;23.734;2024-03-08T07:30:24;95370.81;;;16.04;57.15
9521;BME280;4798;41.574;23.734;2024-03-08T07:33:11;95368.13;;;16.04;56.55
9521;BME280;4798;41.574;23.734;2024-03-08T07:35:41;95363.59;;;15.42;57.76
9521;BME280;4798;41.574;23.734;2024-03-08T07:38:11;95372.09;;;16.07;54.83
9521;BME280;4798;41.574;23.734;2024-03-08T07:40:41;95366.59;;;17.00;53.39
9521;BME280;4798;41.574;23.734;2024-03-08T07:43:12;95361.06;;;17.75;49.30
9521;BME280;4798;41.574;23.734;2024-03-08T07:45:42;95361.88;;;17.85;48.84
9521;BME280;4798;41.574;23.734;2024-03-08T07:48:10;95365.09;;;16.77;52.89
9521;BME280;4798;41.574;23.734;2024-03-08T07:50:40;95307.94;;;17.12;52.79
9521;BME280;4798;41.574;23.734;2024-03-08T07:53:09;95313.25;;;16.73;52.02
9521;BME280;4798;41.574;23.734;2024-03-08T07:55:38;95361.88;;;17.93;50.39
9521;BME280;4798;41.574;23.734;2024-03-08T07:58:09;95297.47;;;17.50;47.38
9521;BME280;4798;41.574;23.734;2024-03-08T08:00:42;95341.69;;;18.30;46.90
9521;BME280;4798;41.574;23.734;2024-03-08T08:03:10;95353.66;;;19.68;45.10
9521;BME280;4798;41.574;23.734;2024-03-08T08:05:39;95334.69;;;19.64;41.29
9521;BME280;4798;41.574;23.734;2024-03-08T08:08:08;95352.25;;;19.62;45.40
9521;BME280;4798;41.574;23.734;2024-03-08T08:10:38;95313.56;;;20.16;44.61
9521;BME280;4798;41.574;23.734;2024-03-08T08:13:07;95329.13;;;20.97;44.88
9521;BME280;4798;41.574;23.734;2024-03-08T08:15:36;95327.41;;;19.65;42.29
9521;BME280;4798;41.574;23.734;2024-03-08T08:18:06;95348.31;;;18.58;44.74
9521;BME280;4798;41.574;23.734;2024-03-08T08:20:37;95346.22;;;18.72;45.05
9521;BME280;4798;41.574;23.734;2024-03-08T08:23:05;95333.56;;;19.28;43.49
9521;BME280;4798;41.574;23.734;2024-03-08T08:25:34;95342.84;;;20.18;42.24
9521;BME280;4798;41.574;23.734;2024-03-08T08:28:03;95329.34;;;20.92;42.75
9521;BME280;4798;41.574;23.734;2024-03-08T08:30:32;95320.22;;;21.17;40.38
9521;BME280;4798;41.574;23.734;2024-03-08T08:33:01;95324.53;;;22.46;36.50
9521;BME280;4798;41.574;23.734;2024-03-08T08:35:34;95329.53;;;21.80;38.02
9521;BME280;4798;41.574;23.734;2024-03-08T08:38:03;95323.03;;;21.57;39.87
9521;BME280;4798;41.574;23.734;2024-03-08T08:40:32;95324.09;;;21.08;40.30
9521;BME280;4798;41.574;23.734;2024-03-08T08:43:00;95328.97;;;21.87;38.61
9521;BME280;4798;41.574;23.734;2024-03-08T08:45:31;95326.22;;;21.02;35.69
9521;BME280;4798;41.574;23.734;2024-03-08T08:48:00;95320.44;;;21.48;36.39
9521;BME280;4798;41.574;23.734;2024-03-08T08:50:29;95274.34;;;21.53;34.38
9521;BME280;4798;41.574;23.734;2024-03-08T08:52:59;95323.88;;;21.73;34.35
9521;BME280;4798;41.574;23.734;2024-03-08T08:55:28;95318.50;;;20.68;36.11
9521;BME280;4798;41.574;23.734;2024-03-08T08:57:58;95315.69;;;22.06;35.77
9521;BME280;4798;41.574;23.734;2024-03-08T09:00:26;95317.91;;;22.04;34.32
9521;BME280;4798;41.574;23.734;2024-03-08T09:02:58;95297.53;;;22.46;32.52
9521;BME280;4798;41.574;23.734;2024-03-08T09:05:26;95312.16;;;22.73;31.97
9521;BME280;4798;41.574;23.734;2024-03-08T09:07:55;95314.97;;;21.00;32.84
9521;BME280;4798;41.574;23.734;2024-03-08T09:10:25;95317.63;;;21.93;32.40
9521;BME280;4798;41.574;23.734;2024-03-08T09:12:57;95291.94;;;23.61;31.62
9521;BME280;4798;41.574;23.734;2024-03-08T09:15:27;95303.91;;;24.10;31.78
9521;BME280;4798;41.574;23.734;2024-03-08T09:17:56;95298.88;;;23.93;29.93
9521;BME280;4798;41.574;23.734;2024-03-08T09:20:26;95307.06;;;22.99;30.44
9521;BME280;4798;41.574;23.734;2024-03-08T09:22:55;95312.63;;;24.03;30.74
9521;BME280;4798;41.574;23.734;2024-03-08T09:25:25;95298.47;;;24.29;28.79
9521;BME280;4798;41.574;23.734;2024-03-08T09:27:55;95296.69;;;24.94;30.12
9521;BME280;4798;41.574;23.734;2024-03-08T09:30:24;95297.81;;;23.97;28.10
9521;BME280;4798;41.574;23.734;2024-03-08T09:32:56;95296.25;;;22.99;30.03
9521;BME280;4798;41.574;23.734;2024-03-08T09:35:25;95283.78;;;22.51;29.26
9521;BME280;4798;41.574;23.734;2024-03-08T09:37:54;95289.84;;;22.48;29.40
9521;BME280;4798;41.574;23.734;2024-03-08T09:40:25;95293.91;;;23.79;30.18
9521;BME280;4798;41.574;23.734;2024-03-08T09:42:54;95289.69;;;23.97;28.24
9521;BME280;4798;41.574;23.734;2024-03-08T09:45:25;95274.09;;;25.36;27.52
9521;BME280;4798;41.574;23.734;2024-03-08T09:47:55;95266.38;;;25.38;26.73
9521;BME280;4798;41.574;23.734;2024-03-08T09:50:24;95280.72;;;25.87;27.65
9521;BME280;4798;41.574;23.734;2024-03-08T09:52:55;95282.69;;;23.96;28.46
9521;BME280;4798;41.574;23.734;2024-03-08T09:55:27;95286.22;;;22.01;30.82
9521;BME280;4798;41.574;23.734;2024-03-08T09:58:02;95290.31;;;21.59;33.78
9521;BME280;4798;41.574;23.734;2024-03-08T10:00:47;95289.16;;;20.99;31.65
9521;BME280;4798;41.574;23.734;2024-03-08T10:03:16;95290.03;;;20.79;33.47
9521;BME280;4798;41.574;23.734;2024-03-08T10:05:44;95291.00;;;21.19;32.40
9521;BME280;4798;41.574;23.734;2024-03-08T10:08:13;95297.03;;;18.97;32.96
9521;BME280;4798;41.574;23.734;2024-03-08T10:10:43;95291.72;;;19.18;34.16
9521;BME280;4798;41.574;23.734;2024-03-08T10:13:13;95257.88;;;18.88;38.76
9521;BME280;4798;41.574;23.734;2024-03-08T10:15:44;95294.66;;;19.34;36.20
9521;BME280;4798;41.574;23.734;2024-03-08T10:18:12;95300.47;;;18.60;37.47
9521;BME280;4798;41.574;23.734;2024-03-08T10:20:41;95301.81;;;18.83;38.32
9521;BME280;4798;41.574;23.734;2024-03-08T10:23:10;95297.25;;;18.84;34.58
9521;BME280;4798;41.574;23.734;2024-03-08T10:25:39;95301.09;;;19.12;34.28
9521;BME280;4798;41.574;23.734;2024-03-08T10:28:10;95294.03;;;18.35;43.67
9521;BME280;4798;41.574;23.734;2024-03-08T10:30:47;95292.59;;;18.29;35.66
9521;BME280;4798;41.574;23.734;2024-03-08T10:33:16;95303.19;;;18.98;37.84
9521;BME280;4798;41.574;23.734;2024-03-08T10:35:44;95282.63;;;18.64;36.59
9521;BME280;4798;41.574;23.734;2024-03-08T10:38:15;95288.03;;;18.30;33.69
9521;BME280;4798;41.574;23.734;2024-03-08T10:40:46;95265.59;;;18.43;34.22
9521;BME280;4798;41.574;23.734;2024-03-08T10:43:23;95254.78;;;17.88;35.43
9521;BME280;4798;41.574;23.734;2024-03-08T10:46:03;95292.13;;;18.36;37.25
9521;BME280;4798;41.574;23.734;2024-03-08T10:48:41;95286.94;;;17.97;36.15
9521;BME280;4798;41.574;23.734;2024-03-08T10:51:12;95271.44;;;16.86;35.61
9521;BME280;4798;41.574;23.734;2024-03-08T10:53:41;95291.28;;;16.85;36.07
9521;BME280;4798;41.574;23.734;2024-03-08T10:56:10;95299.38;;;15.96;39.04
9521;BME280;4798;41.574;23.734;2024-03-08T10:58:44;95303.53;;;15.25;40.37
9521;BME280;4798;41.574;23.734;2024-03-08T11:01:14;95244.88;;;14.71;41.16
9521;BME280;4798;41.574;23.734;2024-03-08T11:03:47;95258.72;;;14.59;41.07
9521;BME280;4798;41.574;23.734;2024-03-08T11:06:23;95288.81;;;14.46;42.68
9521;BME280;4798;41.574;23.734;2024-03-08T11:08:59;95313.22;;;14.02;43.64
9521;BME280;4798;41.574;23.734;2024-03-08T11:11:29;95296.72;;;13.68;46.75
9521;BME280;4798;41.574;23.734;2024-03-08T11:14:03;95310.25;;;13.11;49.76
9521;BME280;4798;41.574;23.734;2024-03-08T11:16:40;95314.59;;;13.02;50.82
9521;BME280;4798;41.574;23.734;2024-03-08T11:19:26;95317.06;;;12.93;51.11
9521;BME280;4798;41.574;23.734;2024-03-08T11:22:00;95307.50;;;13.58;49.25
9521;BME280;4798;41.574;23.734;2024-03-08T11:24:37;95277.03;;;13.83;49.47
9521;BME280;4798;41.574;23.734;2024-03-08T11:27:09;95300.50;;;13.62;46.81
9521;BME280;4798;41.574;23.734;2024-03-08T11:29:41;95283.47;;;13.63;47.43
9521;BME280;4798;41.574;23.734;2024-03-08T11:32:11;95300.47;;;13.99;46.74
9521;BME280;4798;41.574;23.734;2024-03-08T11:34:41;95305.16;;;13.89;47.55
9521;BME280;4798;41.574;23.734;2024-03-08T11:37:13;95295.53;;;14.25;47.65
9521;BME280;4798;41.574;23.734;2024-03-08T11:39:53;95297.00;;;14.36;45.88
9521;BME280;4798;41.574;23.734;2024-03-08T11:42:27;95290.50;;;14.56;46.40
9521;BME280;4798;41.574;23.734;2024-03-08T11:44:57;95269.47;;;14.68;46.78
9521;BME280;4798;41.574;23.734;2024-03-08T11:47:25;95288.22;;;14.49;47.69
9521;BME280;4798;41.574;23.734;2024-03-08T11:49:54;95285.97;;;14.84;46.43
9521;BME280;4798;41.574;23.734;2024-03-08T11:52:23;95275.09;;;14.80;46.58
9521;BME280;4798;41.574;23.734;2024-03-08T11:54:53;95272.53;;;14.75;45.53
9521;BME280;4798;41.574;23.734;2024-03-08T11:57:25;95275.25;;;14.11;44.34
9521;BME280;4798;41.574;23.734;2024-03-08T11:59:57;95198.25;;;13.63;47.87
9521;BME280;4798;41.574;23.734;2024-03-08T12:02:33;95276.50;;;13.99;50.89
9521;BME280;4798;41.574;23.734;2024-03-08T12:05:05;95230.88;;;13.87;50.45
9521;BME280;4798;41.574;23.734;2024-03-08T12:07:36;95268.00;;;13.97;50.15
9521;BME280;4798;41.574;23.734;2024-03-08T12:10:15;95279.28;;;13.57;50.23
9521;BME280;4798;41.574;23.734;2024-03-08T12:13:01;95270.66;;;12.81;52.57
9521;BME280;4798;41.574;23.734;2024-03-08T12:15:33;95268.91;;;12.47;53.55
9521;BME280;4798;41.574;23.734;2024-03-08T12:18:02;95264.16;;;12.44;53.43
9521;BME280;4798;41.574;23.734;2024-03-08T12:20:32;95278.19;;;13.21;52.41
9521;BME280;4798;41.574;23.734;2024-03-08T12:23:00;95279.38;;;12.62;54.90
9521;BME280;4798;41.574;23.734;2024-03-08T12:25:31;95293.06;;;12.22;56.25
9521;BME280;4798;41.574;23.734;2024-03-08T12:28:11;95288.31;;;12.48;56.37
9521;BME280;4798;41.574;23.734;2024-03-08T12:30:46;95282.09;;;12.57;55.42
9521;BME280;4798;41.574;23.734;2024-03-08T12:33:16;95264.16;;;12.92;52.34
9521;BME280;4798;41.574;23.734;2024-03-08T12:35:50;95249.84;;;13.30;51.95
9521;BME280;4798;41.574;23.734;2024-03-08T12:38:22;95258.34;;;14.01;49.65
9521;BME280;4798;41.574;23.734;2024-03-08T12:40:55;95257.72;;;14.69;48.94
9521;BME280;4798;41.574;23.734;2024-03-08T12:43:27;95255.50;;;15.25;47.22
9521;BME280;4798;41.574;23.734;2024-03-08T12:45:58;95206.72;;;14.84;46.95
9521;BME280;4798;41.574;23.734;2024-03-08T12:48:27;95243.47;;;15.14;46.63
9521;BME280;4798;41.574;23.734;2024-03-08T12:50:56;95198.91;;;14.88;48.54
9521;BME280;4798;41.574;23.734;2024-03-08T12:53:24;95267.19;;;14.89;51.31
9521;BME280;4798;41.574;23.734;2024-03-08T12:55:56;95262.25;;;15.09;50.41
9521;BME280;4798;41.574;23.734;2024-03-08T12:58:25;95265.50;;;15.06;48.87
9521;BME280;4798;41.574;23.734;2024-03-08T13:00:55;95260.69;;;14.95;51.85
9521;BME280;4798;41.574;23.734;2024-03-08T13:03:24;95257.28;;;15.30;51.32
9521;BME280;4798;41.574;23.734;2024-03-08T13:05:53;95237.91;;;15.24;50.84
9521;BME280;4798;41.574;23.734;2024-03-08T13:08:24;95267.78;;;14.99;50.04
9521;BME280;4798;41.574;23.734;2024-03-08T13:10:54;95230.03;;;14.79;49.86
9521;BME280;4798;41.574;23.734;2024-03-08T13:13:24;95268.88;;;14.98;50.79
9521;BME280;4798;41.574;23.734;2024-03-08T13:15:55;95257.31;;;14.76;49.76
9521;BME280;4798;41.574;23.734;2024-03-08T13:18:26;95265.63;;;15.01;47.90
9521;BME280;4798;41.574;23.734;2024-03-08T13:20:56;95265.94;;;15.00;47.27
9521;BME280;4798;41.574;23.734;2024-03-08T13:23:24;95193.09;;;14.58;47.66
9521;BME280;4798;41.574;23.734;2024-03-08T13:25:53;95260.19;;;14.66;47.90
9521;BME280;4798;41.574;23.734;2024-03-08T13:28:22;95266.38;;;15.15;49.67